createdAt,value
2023-05-02T00:00:18.813Z,98733.56
2023-05-02T00:02:24.513Z,98723.63
2023-05-02T00:04:29.804Z,98726.13
2023-05-02T00:06:35.595Z,98720.34
2023-05-02T00:08:40.802Z,98723.72
2023-05-02T00:10:46.484Z,98716.78
2023-05-02T00:12:51.537Z,98715.22
2023-05-02T00:14:56.914Z,98715.22
2023-05-02T00:17:05.617Z,98709.97
2023-05-02T00:19:10.908Z,98712.44
2023-05-02T00:21:16.741Z,98716.06
2023-05-02T00:23:21.852Z,98718.06
2023-05-02T00:25:26.858Z,98717.28
2023-05-02T00:27:33.946Z,98715.47
2023-05-02T00:29:39.477Z,98712.97
2023-05-02T00:31:44.745Z,98710.44
2023-05-02T00:33:52.384Z,98710.41
2023-05-02T00:35:57.839Z,98710.34
2023-05-02T00:38:03.502Z,98713.75
2023-05-02T00:40:10.886Z,98718.78
2023-05-02T00:42:16.261Z,98717.13
2023-05-02T00:44:22.208Z,98715.47
2023-05-02T00:46:27.432Z,98713.81
2023-05-02T00:48:33.006Z,98714.72
2023-05-02T00:50:46.117Z,98717.97
2023-05-02T00:52:51.468Z,98718.94
2023-05-02T00:54:57.400Z,98722.44
2023-05-02T00:57:03.815Z,98724.25
2023-05-02T00:59:10.146Z,98722.75
2023-05-02T01:01:36.043Z,98727.94
2023-05-02T01:03:54.264Z,98719.63
2023-05-02T01:06:16.046Z,98728.78
2023-05-02T01:08:34.367Z,98732.19
2023-05-02T01:10:53.192Z,98737.34
2023-05-02T01:13:06.669Z,98731.69
2023-05-02T01:15:19.695Z,98731.97
2023-05-02T01:17:29.367Z,98732.09
2023-05-02T01:19:39.167Z,98733.97
2023-05-02T01:21:47.562Z,98741.59
2023-05-02T01:24:05.887Z,98742.63
2023-05-02T01:26:23.552Z,98742.75
2023-05-02T01:28:39.546Z,98743.03
2023-05-02T01:30:50.933Z,98744.81
2023-05-02T01:32:59.958Z,98739.72
2023-05-02T01:35:08.059Z,98741.38
2023-05-02T01:37:15.699Z,98738.31
2023-05-02T01:39:26.021Z,98742.66
2023-05-02T01:41:35.542Z,98754.56
2023-05-02T01:43:42.670Z,98749.75
2023-05-02T01:45:54.395Z,98751.38
2023-05-02T01:48:01.124Z,98757.97
2023-05-02T01:50:10.963Z,98758.81
2023-05-02T01:52:18.615Z,98766.31
2023-05-02T01:54:26.987Z,98763.97
2023-05-02T01:56:35.778Z,98767.16
2023-05-02T01:58:41.827Z,98772.16
2023-05-02T02:00:48.712Z,98768.81
2023-05-02T02:03:00.595Z,98772.94
2023-05-02T02:05:10.975Z,98775.50
2023-05-02T02:07:17.321Z,98780.50
2023-05-02T02:09:22.637Z,98778.88
2023-05-02T02:11:39.495Z,98780.38
2023-05-02T02:13:51.661Z,98780.34
2023-05-02T02:16:04.435Z,98782.03
2023-05-02T02:18:17.818Z,98781.84
2023-05-02T02:20:24.788Z,98776.81
2023-05-02T02:22:32.403Z,98783.88
2023-05-02T02:24:41.909Z,98783.81
2023-05-02T02:26:47.837Z,98788.75
2023-05-02T02:28:53.415Z,98787.81
2023-05-02T02:30:59.425Z,98791.16
2023-05-02T02:33:04.901Z,98792.84
2023-05-02T02:35:14.242Z,98795.41
2023-05-02T02:37:22.950Z,98789.63
2023-05-02T02:39:47.361Z,98794.59
2023-05-02T02:42:04.818Z,98796.25
2023-05-02T02:44:25.992Z,98798.78
2023-05-02T02:46:45.349Z,98793.66
2023-05-02T02:48:59.588Z,98791.13
2023-05-02T02:51:16.233Z,98791.97
2023-05-02T02:53:28.862Z,98790.41
2023-05-02T02:55:47.746Z,98798.97
2023-05-02T02:58:02.681Z,98798.22
2023-05-02T03:00:16.452Z,98802.41
2023-05-02T03:02:25.906Z,98809.13
2023-05-02T03:04:33.437Z,98805.88
2023-05-02T03:06:42.435Z,98812.53
2023-05-02T03:08:48.442Z,98816.69
2023-05-02T03:10:57.352Z,98823.47
2023-05-02T03:13:02.426Z,98817.72
2023-05-02T03:15:24.771Z,98818.72
2023-05-02T03:17:30.445Z,98823.09
2023-05-02T03:19:35.779Z,98824.94
2023-05-02T03:21:43.682Z,98828.41
2023-05-02T03:23:55.044Z,98829.41
2023-05-02T03:26:00.325Z,98835.41
2023-05-02T03:28:05.840Z,98838.81
2023-05-02T03:30:12.773Z,98838.94
2023-05-02T03:32:17.789Z,98829.75
2023-05-02T03:34:23.727Z,98827.19
2023-05-02T03:36:30.364Z,98825.66
2023-05-02T03:38:38.037Z,98834.13
2023-05-02T03:40:47.061Z,98837.59
2023-05-02T03:42:52.120Z,98837.59
2023-05-02T03:45:06.682Z,98839.34
2023-05-02T03:47:13.815Z,98837.78
2023-05-02T03:49:20.630Z,98848.75
2023-05-02T03:51:28.054Z,98854.66
2023-05-02T03:53:38.499Z,98856.28
2023-05-02T03:55:44.750Z,98856.09
2023-05-02T03:57:56.742Z,98857.59
2023-05-02T04:00:02.233Z,98869.25
2023-05-02T04:02:17.120Z,98861.69
2023-05-02T04:04:26.184Z,98864.06
2023-05-02T04:06:33.273Z,98872.41
2023-05-02T04:08:44.967Z,98869.00
2023-05-02T04:10:50.522Z,98878.91
2023-05-02T04:12:55.615Z,98882.97
2023-05-02T04:15:01.970Z,98882.97
2023-05-02T04:17:08.760Z,98885.31
2023-05-02T04:19:22.084Z,98885.13
2023-05-02T04:21:27.761Z,98900.03
2023-05-02T04:23:33.648Z,98902.56
2023-05-02T04:25:43.051Z,98902.56
2023-05-02T04:27:48.919Z,98905.00
2023-05-02T04:29:58.567Z,98905.03
2023-05-02T04:32:03.933Z,98905.00
2023-05-02T04:34:10.400Z,98913.31
2023-05-02T04:36:20.680Z,98926.63
2023-05-02T04:38:26.434Z,98919.91
2023-05-02T04:40:32.394Z,98919.81
2023-05-02T04:42:44.870Z,98939.06
2023-05-02T04:44:55.813Z,98933.94
2023-05-02T04:47:00.925Z,98936.38
2023-05-02T04:49:06.559Z,98940.53
2023-05-02T04:51:12.829Z,98936.91
2023-05-02T04:53:20.920Z,98943.38
2023-05-02T04:55:26.523Z,98944.13
2023-05-02T04:57:31.674Z,98940.78
2023-05-02T04:59:41.483Z,98952.25
2023-05-02T05:01:47.851Z,98955.47
2023-05-02T05:03:53.252Z,98954.47
2023-05-02T05:05:58.760Z,98958.56
2023-05-02T05:08:04.531Z,98970.97
2023-05-02T05:10:14.119Z,98964.91
2023-05-02T05:12:23.492Z,98969.69
2023-05-02T05:14:29.378Z,98964.72
2023-05-02T05:16:37.739Z,98971.09
2023-05-02T05:18:43.198Z,98975.69
2023-05-02T05:20:50.991Z,98982.31
2023-05-02T05:22:56.168Z,98983.06
2023-05-02T05:25:02.944Z,98992.06
2023-05-02T05:27:10.276Z,98995.22
2023-05-02T05:29:15.720Z,99001.72
2023-05-02T05:31:23.293Z,99008.31
2023-05-02T05:33:36.275Z,99008.03
2023-05-02T05:35:42.472Z,99013.00
2023-05-02T05:37:47.969Z,99014.63
2023-05-02T05:39:55.489Z,99021.16
2023-05-02T05:42:02.740Z,99024.31
2023-05-02T05:44:08.580Z,99021.63
2023-05-02T05:46:14.127Z,99025.66
2023-05-02T05:48:19.240Z,99029.78
2023-05-02T05:50:27.906Z,99027.94
2023-05-02T05:52:32.940Z,99033.66
2023-05-02T05:54:39.927Z,99035.81
2023-05-02T05:56:45.017Z,99032.28
2023-05-02T05:58:54.920Z,99036.06
2023-05-02T06:01:00.422Z,99037.31
2023-05-02T06:03:07.395Z,99042.03
2023-05-02T06:05:14.551Z,99043.44
2023-05-02T06:07:23.905Z,99036.66
2023-05-02T06:09:29.236Z,99050.94
2023-05-02T06:11:34.918Z,99050.69
2023-05-02T06:13:39.987Z,99051.28
2023-05-02T06:15:46.390Z,99051.56
2023-05-02T06:17:53.282Z,99055.38
2023-05-02T06:19:58.582Z,99049.25
2023-05-02T06:22:04.307Z,99052.84
2023-05-02T06:24:12.077Z,99046.44
2023-05-02T06:26:17.534Z,99049.59
2023-05-02T06:28:22.808Z,99054.28
2023-05-02T06:30:28.103Z,99059.66
2023-05-02T06:32:34.249Z,99061.00
2023-05-02T06:34:39.358Z,99060.13
2023-05-02T06:36:44.545Z,99057.50
2023-05-02T06:38:50.401Z,99064.03
2023-05-02T06:40:58.308Z,99058.38
2023-05-02T06:43:03.603Z,99070.34
2023-05-02T06:45:10.379Z,99068.69
2023-05-02T06:47:15.913Z,99066.31
2023-05-02T06:49:21.004Z,99068.69
2023-05-02T06:51:26.425Z,99080.47
2023-05-02T06:53:33.028Z,99077.78
2023-05-02T06:55:38.351Z,99074.88
2023-05-02T06:57:46.516Z,99080.97
2023-05-02T06:59:51.523Z,99082.63
2023-05-02T07:01:57.014Z,99089.03
2023-05-02T07:04:04.060Z,99088.72
2023-05-02T07:06:09.235Z,99095.25
2023-05-02T07:08:14.357Z,99091.22
2023-05-02T07:10:19.400Z,99102.00
2023-05-02T07:12:24.872Z,99105.31
2023-05-02T07:14:32.488Z,99105.63
2023-05-02T07:16:37.630Z,99100.25
2023-05-02T07:18:42.946Z,99100.69
2023-05-02T07:20:48.634Z,99104.28
2023-05-02T07:22:54.258Z,99108.06
2023-05-02T07:25:04.457Z,99104.53
2023-05-02T07:27:09.513Z,99112.75
2023-05-02T07:29:14.522Z,99102.41
2023-05-02T07:31:22.369Z,99111.28
2023-05-02T07:33:27.989Z,99109.72
2023-05-02T07:35:33.047Z,99105.41
2023-05-02T07:37:38.824Z,99109.28
2023-05-02T07:39:43.860Z,99111.69
2023-05-02T07:41:48.911Z,99112.06
2023-05-02T07:43:54.413Z,99112.06
2023-05-02T07:45:59.481Z,99117.25
2023-05-02T07:48:08.443Z,99122.44
2023-05-02T07:50:14.461Z,99122.25
2023-05-02T07:52:19.482Z,99123.88
2023-05-02T07:54:26.385Z,99125.88
2023-05-02T07:56:33.493Z,99117.94
2023-05-02T07:58:39.078Z,99121.38
2023-05-02T08:00:44.097Z,99124.03
2023-05-02T08:02:49.148Z,99125.63
2023-05-02T08:04:56.864Z,99125.72
2023-05-02T08:07:01.913Z,99131.94
2023-05-02T08:09:07.064Z,99133.66
2023-05-02T08:11:12.156Z,99140.97
2023-05-02T08:13:17.225Z,99147.56
2023-05-02T08:15:22.235Z,99144.84
2023-05-02T08:17:29.279Z,99146.47
2023-05-02T08:19:34.414Z,99146.84
2023-05-02T08:21:42.032Z,99153.16
2023-05-02T08:23:47.051Z,99147.56
2023-05-02T08:25:52.115Z,99162.56
2023-05-02T08:27:57.142Z,99164.00
2023-05-02T08:30:02.383Z,99161.47
2023-05-02T08:32:08.408Z,99166.25
2023-05-02T08:34:13.510Z,99165.75
2023-05-02T08:36:20.444Z,99168.91
2023-05-02T08:38:28.330Z,99175.72
2023-05-02T08:40:42.372Z,99181.00
2023-05-02T08:42:48.287Z,99180.34
2023-05-02T08:44:54.233Z,99178.34
2023-05-02T08:47:00.248Z,99182.53
2023-05-02T08:49:06.386Z,99186.38
2023-05-02T08:51:13.391Z,99180.00
2023-05-02T08:53:20.825Z,99189.50
2023-05-02T08:55:29.429Z,99185.66
2023-05-02T08:57:34.949Z,99186.28
2023-05-02T08:59:40.337Z,99187.06
2023-05-02T09:01:49.006Z,99187.91
2023-05-02T09:03:56.066Z,99191.81
2023-05-02T09:06:10.325Z,99190.59
2023-05-02T09:08:16.647Z,99195.31
2023-05-02T09:10:22.359Z,99196.44
2023-05-02T09:12:31.303Z,99197.47
2023-05-02T09:14:36.667Z,99199.84
2023-05-02T09:16:42.723Z,99196.84
2023-05-02T09:18:50.264Z,99196.34
2023-05-02T09:20:56.309Z,99196.22
2023-05-02T09:23:01.340Z,99189.97
2023-05-02T09:25:07.810Z,99191.34
2023-05-02T09:27:13.406Z,99194.81
2023-05-02T09:29:23.441Z,99199.47
2023-05-02T09:31:53.992Z,99194.28
2023-05-02T09:33:57.088Z,99203.50
2023-05-02T09:36:02.119Z,99198.56
2023-05-02T09:38:07.264Z,99199.41
2023-05-02T09:40:14.354Z,99212.69
2023-05-02T09:42:34.212Z,99214.97
2023-05-02T09:44:43.321Z,99215.44
2023-05-02T09:46:51.481Z,99222.03
2023-05-02T09:48:58.441Z,99217.53
2023-05-02T09:51:05.190Z,99219.16
2023-05-02T09:53:12.317Z,99223.81
2023-05-02T09:55:24.251Z,99215.06
2023-05-02T09:57:43.556Z,99207.25
2023-05-02T10:00:01.128Z,99207.38
2023-05-02T10:02:09.829Z,99216.84
2023-05-02T10:04:18.980Z,99208.31
2023-05-02T10:06:24.801Z,99217.31
2023-05-02T10:08:31.554Z,99207.75
2023-05-02T10:10:39.385Z,99214.78
2023-05-02T10:12:45.280Z,99210.06
2023-05-02T10:14:59.464Z,99208.16
2023-05-02T10:17:14.454Z,99209.31
2023-05-02T10:19:26.926Z,99202.13
2023-05-02T10:21:32.994Z,99205.41
2023-05-02T10:23:38.882Z,99203.00
2023-05-02T10:25:44.320Z,99190.66
2023-05-02T10:27:50.631Z,99196.22
2023-05-02T10:29:56.351Z,99184.91
2023-05-02T10:32:03.994Z,99189.75
2023-05-02T10:34:13.910Z,99187.63
2023-05-02T10:36:22.984Z,99189.75
2023-05-02T10:38:28.758Z,99185.78
2023-05-02T10:40:34.327Z,99193.28
2023-05-02T10:42:43.053Z,99192.97
2023-05-02T10:44:49.105Z,99192.94
2023-05-02T10:46:54.416Z,99189.94
2023-05-02T10:49:11.977Z,99186.50
2023-05-02T10:51:32.150Z,99193.06
2023-05-02T10:53:39.771Z,99205.16
2023-05-02T10:55:44.851Z,99204.03
2023-05-02T10:58:24.285Z,99223.78
2023-05-02T11:00:32.503Z,99225.78
2023-05-02T11:02:53.393Z,99232.75
2023-05-02T11:05:09.353Z,99255.28
2023-05-02T11:07:22.430Z,99246.81
2023-05-02T11:09:38.888Z,99245.16
2023-05-02T11:11:45.417Z,99241.19
2023-05-02T11:13:53.607Z,99251.97
2023-05-02T11:16:02.185Z,99243.47
2023-05-02T11:18:10.000Z,99246.34
2023-05-02T11:20:35.265Z,99247.59
2023-05-02T11:22:40.890Z,99238.78
2023-05-02T11:24:47.950Z,99243.94
2023-05-02T11:26:53.117Z,99240.50
2023-05-02T11:28:58.197Z,99241.16
2023-05-02T11:31:03.717Z,99243.00
2023-05-02T11:33:20.666Z,99238.88
2023-05-02T11:35:28.036Z,99238.81
2023-05-02T11:37:36.593Z,99240.41
2023-05-02T11:39:41.717Z,99230.97
2023-05-02T11:41:48.436Z,99238.94
2023-05-02T11:44:06.661Z,99232.75
2023-05-02T11:46:12.753Z,99234.31
2023-05-02T11:48:22.545Z,99241.19
2023-05-02T11:50:30.447Z,99246.66
2023-05-02T11:52:41.466Z,99247.16
2023-05-02T11:54:47.508Z,99252.19
2023-05-02T11:56:52.624Z,99256.97
2023-05-02T11:59:02.018Z,99251.97
2023-05-02T12:01:17.741Z,99260.03
2023-05-02T12:03:29.861Z,99263.06
2023-05-02T12:05:36.059Z,99262.16
2023-05-02T12:07:45.975Z,99269.63
2023-05-02T12:09:54.921Z,99275.41
2023-05-02T12:12:02.103Z,99275.59
2023-05-02T12:14:08.414Z,99276.09
2023-05-02T12:16:13.624Z,99278.06
2023-05-02T12:18:21.520Z,99278.88
2023-05-02T12:20:28.335Z,99279.91
2023-05-02T12:22:34.069Z,99283.97
2023-05-02T12:24:43.683Z,99284.91
2023-05-02T12:26:50.129Z,99276.06
2023-05-02T12:28:58.386Z,99277.47
2023-05-02T12:31:13.927Z,99281.06
2023-05-02T12:33:19.580Z,99279.91
2023-05-02T12:35:25.773Z,99287.81
2023-05-02T12:37:31.908Z,99280.31
2023-05-02T12:39:44.492Z,99284.56
2023-05-02T12:41:49.593Z,99285.94
2023-05-02T12:43:54.789Z,99292.22
2023-05-02T12:46:13.657Z,99292.69
2023-05-02T12:48:36.742Z,99297.78
2023-05-02T12:50:42.730Z,99300.88
2023-05-02T12:52:57.646Z,99306.88
2023-05-02T12:55:24.615Z,99302.66
2023-05-02T12:57:30.331Z,99293.00
2023-05-02T12:59:36.156Z,99304.09
2023-05-02T13:01:41.657Z,99296.03
2023-05-02T13:03:48.438Z,99300.91
2023-05-02T13:05:57.311Z,99295.19
2023-05-02T13:08:03.133Z,99299.88
2023-05-02T13:10:09.705Z,99300.72
2023-05-02T13:12:18.433Z,99288.97
2023-05-02T13:14:23.482Z,99289.56
2023-05-02T13:16:30.507Z,99295.53
2023-05-02T13:18:36.509Z,99288.69
2023-05-02T13:20:41.619Z,99302.09
2023-05-02T13:22:46.905Z,99308.69
2023-05-02T13:24:51.943Z,99305.19
2023-05-02T13:26:57.914Z,99301.91
2023-05-02T13:29:06.200Z,99305.81
2023-05-02T13:31:11.470Z,99300.06
2023-05-02T13:33:17.386Z,99294.41
2023-05-02T13:35:22.448Z,99288.47
2023-05-02T13:37:28.268Z,99290.00
2023-05-02T13:39:33.335Z,99284.44
2023-05-02T13:41:38.723Z,99293.59
2023-05-02T13:43:43.742Z,99286.28
2023-05-02T13:45:52.561Z,99290.22
2023-05-02T13:47:58.065Z,99287.25
2023-05-02T13:50:03.715Z,99292.03
2023-05-02T13:52:09.610Z,99301.69
2023-05-02T13:54:15.420Z,99306.63
2023-05-02T13:56:21.054Z,99302.00
2023-05-02T13:58:26.273Z,99299.50
2023-05-02T14:00:31.861Z,99305.13
2023-05-02T14:02:40.261Z,99294.59
2023-05-02T14:04:45.279Z,99301.84
2023-05-02T14:06:50.635Z,99299.81
2023-05-02T14:08:56.274Z,99301.16
2023-05-02T14:11:01.333Z,99302.53
2023-05-02T14:13:06.794Z,99305.72
2023-05-02T14:15:13.245Z,99303.31
2023-05-02T14:17:18.247Z,99304.97
2023-05-02T14:19:26.348Z,99310.03
2023-05-02T14:21:31.920Z,99312.16
2023-05-02T14:23:37.390Z,99309.13
2023-05-02T14:25:42.592Z,99313.16
2023-05-02T14:27:47.639Z,99327.28
2023-05-02T14:29:52.908Z,99318.16
2023-05-02T14:31:57.981Z,99324.25
2023-05-02T14:34:03.511Z,99335.13
2023-05-02T14:36:12.669Z,99339.97
2023-05-02T14:38:17.988Z,99336.69
2023-05-02T14:40:23.019Z,99336.53
2023-05-02T14:42:28.609Z,99340.88
2023-05-02T14:44:33.942Z,99338.38
2023-05-02T14:46:39.259Z,99337.53
2023-05-02T14:48:44.810Z,99340.78
2023-05-02T14:50:49.812Z,99346.00
2023-05-02T14:52:57.669Z,99349.16
2023-05-02T14:55:03.631Z,99349.38
2023-05-02T14:57:09.259Z,99355.56
2023-05-02T14:59:14.574Z,99364.41
2023-05-02T15:01:20.859Z,99361.81
2023-05-02T15:03:26.389Z,99369.63
2023-05-02T15:05:31.772Z,99377.34
2023-05-02T15:07:36.799Z,99375.31
2023-05-02T15:09:44.819Z,99390.69
2023-05-02T15:11:49.846Z,99388.13
2023-05-02T15:13:56.593Z,99395.78
2023-05-02T15:16:03.927Z,99398.47
2023-05-02T15:18:09.228Z,99403.75
2023-05-02T15:20:16.136Z,99411.13
2023-05-02T15:22:22.444Z,99415.25
2023-05-02T15:24:27.897Z,99416.94
2023-05-02T15:26:36.357Z,99416.31
2023-05-02T15:28:41.590Z,99418.69
2023-05-02T15:30:46.933Z,99423.69
2023-05-02T15:32:52.081Z,99427.75
2023-05-02T15:34:57.670Z,99419.94
2023-05-02T15:37:03.884Z,99420.03
2023-05-02T15:39:09.919Z,99413.53
2023-05-02T15:41:14.971Z,99403.91
2023-05-02T15:43:23.031Z,99397.97
2023-05-02T15:45:28.689Z,99391.34
2023-05-02T15:47:33.895Z,99398.78
2023-05-02T15:49:39.189Z,99418.78
2023-05-02T15:51:44.237Z,99405.41
2023-05-02T15:53:52.501Z,99413.25
2023-05-02T15:55:58.073Z,99419.75
2023-05-02T15:58:03.107Z,99417.69
2023-05-02T16:00:17.013Z,99423.38
2023-05-02T16:02:22.176Z,99433.28
2023-05-02T16:04:28.770Z,99438.63
2023-05-02T16:06:34.720Z,99438.63
2023-05-02T16:08:39.768Z,99453.59
2023-05-02T16:10:45.036Z,99446.41
2023-05-02T16:12:50.134Z,99449.41
2023-05-02T16:14:55.442Z,99457.38
2023-05-02T16:17:04.129Z,99456.50
2023-05-02T16:19:13.577Z,99457.56
2023-05-02T16:21:19.078Z,99463.53
2023-05-02T16:23:24.426Z,99455.81
2023-05-02T16:25:30.114Z,99465.81
2023-05-02T16:27:36.514Z,99463.03
2023-05-02T16:29:42.067Z,99471.41
2023-05-02T16:31:47.372Z,99465.94
2023-05-02T16:33:55.240Z,99468.47
2023-05-02T16:36:04.645Z,99472.13
2023-05-02T16:38:09.773Z,99461.19
2023-05-02T16:40:16.413Z,99459.53
2023-05-02T16:42:21.463Z,99459.22
2023-05-02T16:44:26.561Z,99451.50
2023-05-02T16:46:32.119Z,99450.66
2023-05-02T16:48:37.857Z,99452.13
2023-05-02T16:50:45.449Z,99451.34
2023-05-02T16:52:50.823Z,99444.22
2023-05-02T16:54:56.135Z,99447.28
2023-05-02T16:57:02.800Z,99446.34
2023-05-02T16:59:07.809Z,99453.94
2023-05-02T17:01:13.029Z,99449.34
2023-05-02T17:03:18.115Z,99459.78
2023-05-02T17:05:23.617Z,99460.56
2023-05-02T17:07:31.518Z,99466.31
2023-05-02T17:09:37.180Z,99464.50
2023-05-02T17:11:42.284Z,99463.22
2023-05-02T17:13:47.419Z,99458.09
2023-05-02T17:15:53.018Z,99463.19
2023-05-02T17:17:58.081Z,99466.91
2023-05-02T17:20:03.725Z,99469.34
2023-05-02T17:22:10.241Z,99469.31
2023-05-02T17:24:18.002Z,99479.59
2023-05-02T17:26:23.044Z,99480.22
2023-05-02T17:28:28.660Z,99481.47
2023-05-02T17:30:34.483Z,99483.13
2023-05-02T17:32:40.366Z,99490.84
2023-05-02T17:34:45.780Z,99489.34
2023-05-02T17:36:50.823Z,99484.66
2023-05-02T17:38:56.664Z,99495.84
2023-05-02T17:41:04.316Z,99491.25
2023-05-02T17:43:09.648Z,99497.75
2023-05-02T17:45:15.171Z,99497.06
2023-05-02T17:47:20.328Z,99501.38
2023-05-02T17:49:26.639Z,99504.50
2023-05-02T17:51:32.202Z,99507.03
2023-05-02T17:53:37.825Z,99508.44
2023-05-02T17:55:42.846Z,99512.75
2023-05-02T17:57:50.454Z,99521.16
2023-05-02T17:59:58.527Z,99523.78
2023-05-02T18:02:04.064Z,99524.59
2023-05-02T18:04:13.062Z,99521.59
2023-05-02T18:06:19.439Z,99528.66
2023-05-02T18:08:24.496Z,99530.31
2023-05-02T18:10:30.258Z,99539.72
2023-05-02T18:12:35.939Z,99545.97
2023-05-02T18:14:43.835Z,99540.97
2023-05-02T18:16:49.217Z,99544.53
2023-05-02T18:18:54.481Z,99539.56
2023-05-02T18:20:59.675Z,99547.97
2023-05-02T18:23:06.174Z,99544.69
2023-05-02T18:25:11.860Z,99547.31
2023-05-02T18:27:16.908Z,99552.59
2023-05-02T18:29:21.996Z,99549.25
2023-05-02T18:31:29.657Z,99562.56
2023-05-02T18:33:35.010Z,99560.22
2023-05-02T18:35:40.048Z,99557.84
2023-05-02T18:37:45.049Z,99555.47
2023-05-02T18:39:50.061Z,99568.06
2023-05-02T18:41:55.075Z,99567.31
2023-05-02T18:44:00.933Z,99569.94
2023-05-02T18:46:06.041Z,99572.47
2023-05-02T18:48:13.643Z,99577.59
2023-05-02T18:50:18.710Z,99580.97
2023-05-02T18:52:24.811Z,99573.38
2023-05-02T18:54:29.832Z,99581.88
2023-05-02T18:56:35.400Z,99584.50
2023-05-02T18:58:40.416Z,99581.22
2023-05-02T19:00:45.958Z,99591.34
2023-05-02T19:02:54.417Z,99580.47
2023-05-02T19:05:02.879Z,99589.78
2023-05-02T19:07:09.339Z,99593.22
2023-05-02T19:09:15.882Z,99584.88
2023-05-02T19:11:23.065Z,99596.66
2023-05-02T19:13:28.494Z,99601.84
2023-05-02T19:15:33.500Z,99608.69
2023-05-02T19:17:39.416Z,99603.72
2023-05-02T19:19:46.831Z,99613.84
2023-05-02T19:21:55.266Z,99608.94
2023-05-02T19:24:00.384Z,99618.28
2023-05-02T19:26:06.048Z,99618.28
2023-05-02T19:28:13.122Z,99620.06
2023-05-02T19:30:18.668Z,99617.63
2023-05-02T19:32:25.524Z,99634.38
2023-05-02T19:34:31.970Z,99625.31
2023-05-02T19:36:37.010Z,99632.13
2023-05-02T19:38:45.402Z,99635.53
2023-05-02T19:40:50.547Z,99627.38
2023-05-02T19:42:57.242Z,99638.41
2023-05-02T19:45:02.644Z,99640.16
2023-05-02T19:47:08.048Z,99641.03
2023-05-02T19:49:13.826Z,99639.41
2023-05-02T19:51:25.337Z,99645.31
2023-05-02T19:53:31.608Z,99652.94
2023-05-02T19:55:39.251Z,99652.22
2023-05-02T19:57:45.161Z,99655.56
2023-05-02T19:59:50.169Z,99657.31
2023-05-02T20:01:55.959Z,99657.31
2023-05-02T20:04:01.532Z,99662.41
2023-05-02T20:06:07.025Z,99659.13
2023-05-02T20:08:12.558Z,99659.16
2023-05-02T20:10:18.461Z,99664.22
2023-05-02T20:12:26.172Z,99659.25
2023-05-02T20:14:31.945Z,99668.50
2023-05-02T20:16:37.073Z,99665.16
2023-05-02T20:18:42.380Z,99665.97
2023-05-02T20:20:47.480Z,99671.03
2023-05-02T20:22:54.575Z,99676.09
2023-05-02T20:24:59.939Z,99676.09
2023-05-02T20:27:05.876Z,99676.06
2023-05-02T20:29:13.742Z,99671.09
2023-05-02T20:31:18.766Z,99674.44
2023-05-02T20:33:27.485Z,99678.59
2023-05-02T20:35:35.672Z,99685.25
2023-05-02T20:37:40.888Z,99681.09
2023-05-02T20:39:46.195Z,99684.41
2023-05-02T20:41:51.718Z,99682.75
2023-05-02T20:43:57.336Z,99686.06
2023-05-02T20:46:12.980Z,99687.69
2023-05-02T20:48:20.000Z,99687.66
2023-05-02T20:50:25.714Z,99690.09
2023-05-02T20:52:30.883Z,99685.03
2023-05-02T20:54:36.550Z,99689.16
2023-05-02T20:56:41.955Z,99687.50
2023-05-02T20:58:46.981Z,99691.63
2023-05-02T21:00:52.822Z,99705.75
2023-05-02T21:03:00.527Z,99701.63
2023-05-02T21:05:06.627Z,99704.00
2023-05-02T21:07:11.746Z,99701.47
2023-05-02T21:09:18.791Z,99703.97
2023-05-02T21:11:23.876Z,99707.31
2023-05-02T21:13:28.968Z,99700.56
2023-05-02T21:15:38.642Z,99709.63
2023-05-02T21:17:43.737Z,99703.72
2023-05-02T21:19:51.320Z,99718.69
2023-05-02T21:21:56.322Z,99712.03
2023-05-02T21:24:01.386Z,99716.19
2023-05-02T21:26:07.221Z,99716.91
2023-05-02T21:28:12.221Z,99719.31
2023-05-02T21:30:18.075Z,99730.09
2023-05-02T21:32:24.019Z,99731.72
2023-05-02T21:34:29.350Z,99730.16
2023-05-02T21:36:37.542Z,99733.44
2023-05-02T21:38:42.647Z,99735.00
2023-05-02T21:40:47.654Z,99734.91
2023-05-02T21:42:52.644Z,99734.94
2023-05-02T21:44:58.472Z,99732.44
2023-05-02T21:47:03.845Z,99729.94
2023-05-02T21:49:08.985Z,99728.13
2023-05-02T21:51:15.183Z,99727.22
2023-05-02T21:53:22.816Z,99727.94
2023-05-02T21:55:28.754Z,99733.75
2023-05-02T21:57:33.803Z,99725.47
2023-05-02T21:59:38.807Z,99733.56
2023-05-02T22:01:44.093Z,99736.63
2023-05-02T22:03:49.132Z,99729.03
2023-05-02T22:05:54.688Z,99735.63
2023-05-02T22:08:00.878Z,99728.06
2023-05-02T22:10:10.265Z,99740.41
2023-05-02T22:12:15.537Z,99737.13
2023-05-02T22:14:22.086Z,99735.28
2023-05-02T22:16:29.380Z,99741.88
2023-05-02T22:18:34.515Z,99732.88
2023-05-02T22:20:39.526Z,99728.69
2023-05-02T22:22:44.809Z,99741.81
2023-05-02T22:24:50.087Z,99734.88
2023-05-02T22:26:58.597Z,99739.84
2023-05-02T22:29:03.620Z,99742.94
2023-05-02T22:31:08.984Z,99735.25
2023-05-02T22:33:14.852Z,99750.78
2023-05-02T22:35:20.138Z,99749.84
2023-05-02T22:37:25.189Z,99755.56
2023-05-02T22:39:30.759Z,99754.75
2023-05-02T22:41:35.863Z,99754.81
2023-05-02T22:43:43.480Z,99753.03
2023-05-02T22:45:51.347Z,99749.88
2023-05-02T22:47:56.636Z,99747.28
2023-05-02T22:50:05.498Z,99759.00
2023-05-02T22:52:10.861Z,99765.47
2023-05-02T22:54:16.995Z,99755.28
2023-05-02T22:56:22.057Z,99758.56
2023-05-02T22:58:27.227Z,99751.97
2023-05-02T23:00:34.955Z,99751.94
2023-05-02T23:02:40.341Z,99752.81
2023-05-02T23:04:45.961Z,99748.78
2023-05-02T23:06:51.076Z,99750.34
2023-05-02T23:08:56.112Z,99753.50
2023-05-02T23:11:01.114Z,99758.28
2023-05-02T23:13:06.733Z,99752.75
2023-05-02T23:15:13.332Z,99756.78
2023-05-02T23:17:20.960Z,99762.59
2023-05-02T23:19:26.100Z,99760.78
2023-05-02T23:21:31.148Z,99761.75
2023-05-02T23:23:36.167Z,99763.91
2023-05-02T23:25:42.749Z,99755.75
2023-05-02T23:27:47.808Z,99753.41
2023-05-02T23:29:52.951Z,99759.19
2023-05-02T23:31:58.188Z,99755.94
2023-05-02T23:34:05.924Z,99760.97
2023-05-02T23:36:12.458Z,99763.50
2023-05-02T23:38:17.612Z,99761.00
2023-05-02T23:40:22.714Z,99755.81
2023-05-02T23:42:27.781Z,99765.78
2023-05-02T23:44:33.245Z,99768.34
2023-05-02T23:46:38.371Z,99777.66
2023-05-02T23:48:43.555Z,99771.53
2023-05-02T23:50:51.356Z,99766.31
2023-05-02T23:52:56.386Z,99765.44
2023-05-02T23:55:01.437Z,99767.13
2023-05-02T23:57:06.521Z,99774.28
2023-05-02T23:59:11.577Z,99762.19
